createdAt,value
2024-05-09T00:00:56.746Z,98197.25
2024-05-09T00:05:01.580Z,98196.41
2024-05-09T00:09:08.765Z,98197.25
2024-05-09T00:13:13.609Z,98185.56
2024-05-09T00:17:18.191Z,98188.50
2024-05-09T00:21:22.975Z,98194.31
2024-05-09T00:25:30.101Z,98188.06
2024-05-09T00:29:34.904Z,98182.88
2024-05-09T00:33:39.773Z,98184.72
2024-05-09T00:37:44.504Z,98183.06
2024-05-09T00:41:51.908Z,98183.28
2024-05-09T00:45:58.402Z,98185.38
2024-05-09T00:50:05.531Z,98175.97
2024-05-09T00:54:12.048Z,98177.22
2024-05-09T00:58:23.043Z,98182.63
2024-05-09T01:02:28.705Z,98164.09
2024-05-09T01:06:33.382Z,98160.53
2024-05-09T01:10:38.170Z,98161.59
2024-05-09T01:14:45.570Z,98170.97
2024-05-09T01:18:50.710Z,98163.25
2024-05-09T01:22:56.670Z,98165.13
2024-05-09T01:27:03.826Z,98168.88
2024-05-09T01:31:08.954Z,98167.22
2024-05-09T01:35:13.668Z,98165.53
2024-05-09T01:39:18.234Z,98170.31
2024-05-09T01:43:25.368Z,98176.78
2024-05-09T01:47:30.197Z,98173.44
2024-05-09T01:51:35.061Z,98176.13
2024-05-09T01:55:39.559Z,98182.22
2024-05-09T01:59:46.952Z,98183.25
2024-05-09T02:03:51.951Z,98176.97
2024-05-09T02:07:57.164Z,98181.78
2024-05-09T02:12:01.795Z,98175.53
2024-05-09T02:16:13.341Z,98176.13
2024-05-09T02:20:26.816Z,98181.38
2024-05-09T02:24:35.066Z,98180.53
2024-05-09T02:28:39.778Z,98174.91
2024-05-09T02:32:47.117Z,98177.16
2024-05-09T02:36:51.941Z,98180.94
2024-05-09T02:40:56.754Z,98176.34
2024-05-09T02:45:01.246Z,98179.47
2024-05-09T02:49:08.698Z,98185.91
2024-05-09T02:53:14.766Z,98181.53
2024-05-09T02:57:19.792Z,98185.28
2024-05-09T03:01:22.082Z,98177.34
2024-05-09T03:05:29.459Z,98178.41
2024-05-09T03:09:34.209Z,98189.66
2024-05-09T03:13:41.305Z,98192.56
2024-05-09T03:17:45.998Z,98193.81
2024-05-09T03:21:53.824Z,98188.81
2024-05-09T03:25:58.500Z,98189.22
2024-05-09T03:30:05.501Z,98181.31
2024-05-09T03:34:11.833Z,98177.31
2024-05-09T03:38:19.309Z,98176.88
2024-05-09T03:42:24.126Z,98180.81
2024-05-09T03:46:28.650Z,98188.72
2024-05-09T03:50:35.698Z,98187.88
2024-05-09T03:54:48.173Z,98187.81
2024-05-09T03:58:53.008Z,98191.09
2024-05-09T04:02:57.984Z,98197.34
2024-05-09T04:07:02.679Z,98199.81
2024-05-09T04:11:10.183Z,98203.75
2024-05-09T04:15:15.013Z,98208.72
2024-05-09T04:19:20.112Z,98213.88
2024-05-09T04:23:24.907Z,98215.53
2024-05-09T04:27:32.302Z,98216.50
2024-05-09T04:31:39.029Z,98215.66
2024-05-09T04:35:45.155Z,98217.91
2024-05-09T04:39:50.000Z,98216.63
2024-05-09T04:43:57.657Z,98226.59
2024-05-09T04:48:03.034Z,98235.09
2024-05-09T04:52:08.711Z,98228.22
2024-05-09T04:56:13.521Z,98229.44
2024-05-09T05:00:28.927Z,98230.28
2024-05-09T05:04:40.336Z,98240.91
2024-05-09T05:08:44.845Z,98241.56
2024-05-09T05:13:05.157Z,98238.44
2024-05-09T05:17:12.369Z,98249.06
2024-05-09T05:21:17.008Z,98254.25
2024-05-09T05:25:21.871Z,98248.06
2024-05-09T05:29:26.437Z,98247.31
2024-05-09T05:33:33.745Z,98253.56
2024-05-09T05:37:38.465Z,98254.66
2024-05-09T05:41:43.142Z,98253.28
2024-05-09T05:45:48.153Z,98252.06
2024-05-09T05:49:55.527Z,98253.31
2024-05-09T05:54:00.087Z,98249.06
2024-05-09T05:58:04.906Z,98252.41
2024-05-09T06:02:06.960Z,98254.56
2024-05-09T06:06:16.359Z,98251.47
2024-05-09T06:10:25.682Z,98251.69
2024-05-09T06:14:34.794Z,98250.88
2024-05-09T06:18:39.816Z,98249.88
2024-05-09T06:22:47.139Z,98238.00
2024-05-09T06:26:52.058Z,98243.88
2024-05-09T06:30:56.747Z,98242.66
2024-05-09T06:34:58.667Z,98246.81
2024-05-09T06:39:06.239Z,98244.13
2024-05-09T06:43:14.461Z,98244.34
2024-05-09T06:47:19.894Z,98233.09
2024-05-09T06:51:24.725Z,98239.34
2024-05-09T06:55:32.093Z,98236.84
2024-05-09T06:59:36.987Z,98242.66
2024-05-09T07:03:44.113Z,98240.38
2024-05-09T07:07:49.006Z,98241.16
2024-05-09T07:11:56.343Z,98235.50
2024-05-09T07:15:58.643Z,98243.00
2024-05-09T07:20:05.468Z,98234.81
2024-05-09T07:24:12.328Z,98229.72
2024-05-09T07:28:21.071Z,98231.97
2024-05-09T07:32:26.211Z,98230.25
2024-05-09T07:36:30.814Z,98231.63
2024-05-09T07:40:37.017Z,98231.31
2024-05-09T07:44:44.597Z,98224.13
2024-05-09T07:57:04.753Z,98215.81
2024-05-09T08:01:12.267Z,98214.25
2024-05-09T08:05:14.699Z,98208.91
2024-05-09T08:09:21.169Z,98213.75
2024-05-09T08:13:26.111Z,98211.19
2024-05-09T08:17:33.492Z,98206.50
2024-05-09T08:21:38.088Z,98207.72
2024-05-09T08:25:42.808Z,98205.06
2024-05-09T08:29:47.620Z,98218.78
2024-05-09T08:33:56.778Z,98221.34
2024-05-09T08:38:01.819Z,98222.69
2024-05-09T08:42:10.541Z,98217.06
2024-05-09T08:46:18.456Z,98215.31
2024-05-09T08:50:35.396Z,98206.56
2024-05-09T08:54:43.198Z,98208.66
2024-05-09T08:58:48.527Z,98202.81
2024-05-09T09:02:54.997Z,98206.44
2024-05-09T09:07:03.635Z,98214.63
2024-05-09T09:11:08.609Z,98208.53
2024-05-09T09:15:13.119Z,98207.03
2024-05-09T09:19:18.027Z,98200.81
2024-05-09T09:23:27.304Z,98207.34
2024-05-09T09:27:29.305Z,98195.44
2024-05-09T09:31:34.101Z,98211.38
2024-05-09T09:35:39.146Z,98199.75
2024-05-09T09:39:49.128Z,98202.88
2024-05-09T09:43:56.336Z,98205.34
2024-05-09T09:48:02.254Z,98216.13
2024-05-09T09:52:11.012Z,98210.81
2024-05-09T09:56:20.374Z,98212.56
2024-05-09T10:00:30.642Z,98213.19
2024-05-09T10:04:38.007Z,98208.09
2024-05-09T10:08:43.692Z,98201.94
2024-05-09T10:13:00.509Z,98191.94
2024-05-09T10:17:08.753Z,98196.97
2024-05-09T10:21:23.016Z,98200.69
2024-05-09T10:25:27.776Z,98187.00
2024-05-09T10:29:34.998Z,98180.91
2024-05-09T10:33:41.675Z,98182.78
2024-05-09T10:37:46.680Z,98176.75
2024-05-09T10:41:53.547Z,98179.72
2024-05-09T10:46:01.196Z,98178.97
2024-05-09T10:50:15.668Z,98183.81
2024-05-09T10:54:28.106Z,98176.97
2024-05-09T10:58:33.115Z,98170.53
2024-05-09T11:02:40.402Z,98167.03
2024-05-09T11:06:45.374Z,98161.69
2024-05-09T11:10:48.970Z,98162.88
2024-05-09T11:14:56.827Z,98156.75
2024-05-09T11:19:04.462Z,98145.81
2024-05-09T11:23:09.984Z,98154.75
2024-05-09T11:27:15.177Z,98156.81
2024-05-09T11:31:19.871Z,98158.41
2024-05-09T11:35:29.393Z,98156.44
2024-05-09T11:39:33.980Z,98150.69
2024-05-09T11:43:38.665Z,98154.34
2024-05-09T11:47:43.550Z,98148.72
2024-05-09T11:51:50.942Z,98148.78
2024-05-09T11:55:55.749Z,98149.84
2024-05-09T12:00:00.412Z,98156.16
2024-05-09T12:04:05.607Z,98138.84
2024-05-09T12:08:14.267Z,98133.22
2024-05-09T12:12:18.997Z,98135.06
2024-05-09T12:16:24.317Z,98135.22
2024-05-09T12:20:36.177Z,98134.81
2024-05-09T12:24:46.389Z,98130.59
2024-05-09T12:28:51.262Z,98124.00
2024-05-09T12:32:53.610Z,98124.56
2024-05-09T12:36:59.022Z,98112.25
2024-05-09T12:41:06.351Z,98110.59
2024-05-09T12:45:11.307Z,98113.50
2024-05-09T12:49:18.698Z,98106.84
2024-05-09T12:53:24.106Z,98102.47
2024-05-09T12:57:31.262Z,98088.25
2024-05-09T13:01:35.924Z,98083.59
2024-05-09T13:05:41.496Z,98081.31
2024-05-09T13:09:46.582Z,98077.19
2024-05-09T13:13:54.104Z,98071.88
2024-05-09T13:18:02.630Z,98078.09
2024-05-09T13:22:08.388Z,98065.34
2024-05-09T13:26:13.350Z,98065.28
2024-05-09T13:30:26.398Z,98056.53
2024-05-09T13:34:39.139Z,98054.31
2024-05-09T13:38:41.410Z,98043.34
2024-05-09T13:42:48.681Z,98039.22
2024-05-09T13:46:56.161Z,98046.81
2024-05-09T13:51:00.981Z,98043.56
2024-05-09T13:55:05.804Z,98032.66
2024-05-09T13:59:11.405Z,98024.97
2024-05-09T14:03:20.664Z,98025.47
2024-05-09T14:07:25.965Z,98031.03
2024-05-09T14:11:30.441Z,98024.09
2024-05-09T14:15:34.891Z,98013.94
2024-05-09T14:19:42.181Z,98009.81
2024-05-09T14:23:47.074Z,98010.38
2024-05-09T14:27:52.619Z,98006.72
2024-05-09T14:31:57.132Z,98010.53
2024-05-09T14:36:04.580Z,98004.69
2024-05-09T14:40:21.574Z,98001.06
2024-05-09T14:44:34.848Z,98001.81
2024-05-09T14:48:39.841Z,98003.38
2024-05-09T14:52:47.079Z,97998.78
2024-05-09T14:56:51.731Z,98001.28
2024-05-09T15:00:56.504Z,97984.75
2024-05-09T15:05:01.505Z,97997.72
2024-05-09T15:09:07.907Z,97978.69
2024-05-09T15:13:15.457Z,97983.38
2024-05-09T15:17:21.271Z,97974.84
2024-05-09T15:21:26.230Z,97974.31
2024-05-09T15:25:33.861Z,97969.34
2024-05-09T15:29:39.323Z,97973.69
2024-05-09T15:33:44.362Z,97964.81
2024-05-09T15:37:49.358Z,97963.38
2024-05-09T15:41:57.576Z,97954.81
2024-05-09T15:46:02.793Z,97944.34
2024-05-09T15:50:09.824Z,97962.88
2024-05-09T15:54:21.082Z,97956.47
2024-05-09T15:58:30.282Z,97949.75
2024-05-09T16:02:35.109Z,97944.75
2024-05-09T16:06:40.090Z,97935.53
2024-05-09T16:10:46.208Z,97940.41
2024-05-09T16:14:54.469Z,97935.38
2024-05-09T16:18:59.357Z,97938.53
2024-05-09T16:23:04.387Z,97936.63
2024-05-09T16:27:08.890Z,97930.78
2024-05-09T16:31:16.238Z,97926.16
2024-05-09T16:35:20.730Z,97925.41
2024-05-09T16:39:25.578Z,97916.06
2024-05-09T16:43:29.999Z,97917.75
2024-05-09T16:47:37.582Z,97928.81
2024-05-09T16:51:42.532Z,97929.94
2024-05-09T16:55:47.457Z,97925.56
2024-05-09T16:59:52.146Z,97925.97
2024-05-09T17:03:59.859Z,97935.19
2024-05-09T17:08:04.693Z,97927.50
2024-05-09T17:12:09.366Z,97920.38
2024-05-09T17:16:15.759Z,97927.00
2024-05-09T17:20:29.728Z,97918.44
2024-05-09T17:24:38.709Z,97924.22
2024-05-09T17:28:43.690Z,97925.31
2024-05-09T17:32:48.375Z,97927.22
2024-05-09T17:36:55.927Z,97926.06
2024-05-09T17:41:00.918Z,97926.34
2024-05-09T17:45:06.306Z,97921.41
2024-05-09T17:49:11.148Z,97924.44
2024-05-09T17:53:19.028Z,97927.22
2024-05-09T17:57:23.891Z,97924.81
2024-05-09T18:01:28.735Z,97921.97
2024-05-09T18:05:31.464Z,97921.41
2024-05-09T18:09:38.899Z,97929.31
2024-05-09T18:13:43.739Z,97913.63
2024-05-09T18:17:48.533Z,97920.41
2024-05-09T18:21:53.251Z,97929.31
2024-05-09T18:26:01.334Z,97932.47
2024-05-09T18:30:09.446Z,97936.38
2024-05-09T18:34:16.520Z,97932.03
2024-05-09T18:38:25.541Z,97935.94
2024-05-09T18:42:32.782Z,97942.56
2024-05-09T18:46:37.800Z,97945.63
2024-05-09T18:50:42.591Z,97948.72
2024-05-09T18:54:47.884Z,97956.66
2024-05-09T18:58:55.303Z,97964.19
2024-05-09T19:03:00.042Z,97964.72
2024-05-09T19:07:05.460Z,97975.09
2024-05-09T19:11:10.246Z,97975.66
2024-05-09T19:15:18.008Z,97984.75
2024-05-09T19:19:23.086Z,97986.94
2024-05-09T19:23:27.780Z,97989.16
2024-05-09T19:27:32.706Z,97994.25
2024-05-09T19:31:40.076Z,97998.06
2024-05-09T19:35:45.159Z,98003.19
2024-05-09T19:39:50.098Z,98002.25
2024-05-09T19:43:54.691Z,97998.59
2024-05-09T19:48:02.214Z,98009.84
2024-05-09T19:52:07.676Z,98016.25
2024-05-09T19:56:12.383Z,98021.44
2024-05-09T20:00:22.253Z,98015.75
2024-05-09T20:04:37.374Z,98014.66
2024-05-09T20:08:42.256Z,98012.22
2024-05-09T20:12:47.029Z,98029.84
2024-05-09T20:16:51.908Z,98029.34
2024-05-09T20:21:00.309Z,98025.19
2024-05-09T20:25:05.683Z,98029.50
2024-05-09T20:29:10.207Z,98027.56
2024-05-09T20:33:14.939Z,98025.25
2024-05-09T20:37:23.151Z,98029.03
2024-05-09T20:41:27.674Z,98026.94
2024-05-09T20:45:32.331Z,98028.97
2024-05-09T20:49:37.083Z,98015.47
2024-05-09T20:53:44.514Z,98026.28
2024-05-09T20:57:49.155Z,98022.41
2024-05-09T21:01:54.316Z,98024.81
2024-05-09T21:05:59.318Z,98022.13
2024-05-09T21:10:15.303Z,98021.59
2024-05-09T21:14:24.174Z,98018.72
2024-05-09T21:18:28.761Z,98018.97
2024-05-09T21:22:33.674Z,98027.59
2024-05-09T21:26:41.341Z,98023.50
2024-05-09T21:30:46.189Z,98016.47
2024-05-09T21:34:50.866Z,98019.00
2024-05-09T21:38:55.923Z,98011.97
2024-05-09T21:43:04.032Z,98005.09
2024-05-09T21:47:09.036Z,98012.69
2024-05-09T21:51:16.382Z,98008.38
2024-05-09T21:55:21.196Z,98010.28
2024-05-09T21:59:28.550Z,98012.38
2024-05-09T22:03:33.635Z,98013.88
2024-05-09T22:07:35.665Z,98008.28
2024-05-09T22:11:40.338Z,98007.47
2024-05-09T22:15:47.618Z,98005.00
2024-05-09T22:19:52.785Z,98002.13
2024-05-09T22:23:57.531Z,98004.25
2024-05-09T22:28:02.957Z,98007.59
2024-05-09T22:32:10.887Z,97997.00
2024-05-09T22:36:13.148Z,98005.53
2024-05-09T22:40:28.228Z,98004.31
2024-05-09T22:44:41.615Z,97999.50
2024-05-09T22:48:49.128Z,97995.59
2024-05-09T22:52:54.038Z,97998.09
2024-05-09T22:56:58.811Z,98004.56
2024-05-09T23:01:03.644Z,98001.44
2024-05-09T23:05:11.305Z,98004.97
2024-05-09T23:09:16.254Z,98005.97
2024-05-09T23:13:21.113Z,98004.50
2024-05-09T23:17:26.157Z,98007.63
2024-05-09T23:21:33.974Z,98011.78
2024-05-09T23:25:41.000Z,98013.41
2024-05-09T23:29:46.398Z,98012.59
2024-05-09T23:33:51.754Z,98013.81
2024-05-09T23:37:58.958Z,98005.91
2024-05-09T23:42:03.502Z,98010.91
2024-05-09T23:46:08.431Z,98008.38
2024-05-09T23:50:20.218Z,98010.41
2024-05-09T23:54:30.852Z,98002.09
2024-05-09T23:58:35.601Z,97992.91
